Time;durP1;ratioP1;P1;durP2;ratioP2;P2;SDS_P1;SDS_P2;PMS_P1;PMS_P2;Temp;Humidity;BMP_temperature;BMP_pressure;BME280_temperature;BME280_humidity;BME280_pressure;Samples;Min_cycle;Max_cycle;Signal;HPM_P1;HPM_P2
2022/07/22 00:00:42;;;;;;;13.77;6.95;;;;;;;22.43;60.71;94781.34;4956838;28;20215;-75
2022/07/22 00:03:08;;;;;;;10.48;6.78;;;;;;;22.51;60.28;94801.91;4955676;28;20249;-75
2022/07/22 00:05:37;;;;;;;15.48;7.38;;;;;;;22.53;60.53;94794.47;4955166;28;20216;-75
2022/07/22 00:08:04;;;;;;;17.67;7.35;;;;;;;22.52;60.96;94790.22;4954583;28;20239;-75
2022/07/22 00:10:31;;;;;;;16.00;7.38;;;;;;;22.49;61.03;94788.94;4955646;28;20609;-76
2022/07/22 00:12:58;;;;;;;16.17;6.60;;;;;;;22.55;59.97;94797.59;4953247;28;20673;-75
2022/07/22 00:15:25;;;;;;;12.57;6.20;;;;;;;22.56;59.61;94793.88;4956641;28;20241;-75
2022/07/22 00:17:52;;;;;;;12.00;6.07;;;;;;;22.56;59.17;94792.03;4953811;28;20205;-76
2022/07/22 00:20:19;;;;;;;11.02;6.13;;;;;;;22.55;58.78;94792.28;4954826;28;20547;-75
2022/07/22 00:22:47;;;;;;;12.88;6.18;;;;;;;22.50;58.89;94801.13;4955597;28;20259;-76
2022/07/22 00:25:14;;;;;;;15.68;5.85;;;;;;;22.47;58.98;94800.91;4956740;28;20209;-76
2022/07/22 00:27:41;;;;;;;11.38;5.97;;;;;;;22.45;59.17;94800.41;4957515;28;20259;-76
2022/07/22 00:30:09;;;;;;;12.82;5.43;;;;;;;22.44;59.28;94801.47;4956218;28;20256;-75
2022/07/22 00:32:36;;;;;;;13.93;6.05;;;;;;;22.43;59.89;94794.59;4954302;28;20221;-76
2022/07/22 00:35:03;;;;;;;9.25;5.50;;;;;;;22.39;59.49;94801.56;4954603;28;20239;-75
2022/07/22 00:37:30;;;;;;;14.25;5.80;;;;;;;22.29;60.32;94794.53;4958840;28;20217;-76
2022/07/22 00:39:58;;;;;;;10.35;5.57;;;;;;;22.31;60.05;94799.56;4954923;28;20209;-76
2022/07/22 00:42:25;;;;;;;14.30;5.85;;;;;;;22.23;60.32;94803.63;4954472;28;20220;-76
2022/07/22 00:44:52;;;;;;;12.00;5.93;;;;;;;22.21;60.78;94807.66;4954170;28;20209;-76
2022/07/22 00:47:19;;;;;;;7.75;5.43;;;;;;;22.18;60.88;94802.91;4955391;28;20995;-76
2022/07/22 00:49:45;;;;;;;12.52;5.65;;;;;;;22.15;61.00;94806.13;4953187;28;20202;-75
2022/07/22 00:52:12;;;;;;;9.82;6.00;;;;;;;22.10;61.79;94800.91;4956352;28;20205;-76
2022/07/22 00:54:39;;;;;;;13.88;6.25;;;;;;;22.10;61.33;94801.72;4954742;28;20205;-76
2022/07/22 00:57:08;;;;;;;15.00;6.00;;;;;;;22.10;61.60;94801.72;4954544;28;20213;-76
2022/07/22 00:59:34;;;;;;;12.77;6.05;;;;;;;22.10;61.59;94803.56;4955678;28;20221;-75
2022/07/22 01:02:01;;;;;;;11.63;5.78;;;;;;;22.07;61.79;94804.94;4956127;28;20635;-76
2022/07/22 01:04:28;;;;;;;13.32;6.07;;;;;;;22.09;61.42;94805.41;4953309;28;20221;-75
2022/07/22 01:06:55;;;;;;;9.65;6.38;;;;;;;22.06;61.12;94800.69;4957646;28;20213;-75
2022/07/22 01:09:22;;;;;;;8.18;6.32;;;;;;;21.98;61.30;94802.13;4954926;28;20198;-75
2022/07/22 01:11:49;;;;;;;11.23;6.32;;;;;;;21.95;61.70;94801.91;4954780;28;20210;-75
2022/07/22 01:14:18;;;;;;;18.73;6.38;;;;;;;21.94;62.51;94795.03;4953268;28;20197;-75
2022/07/22 01:16:45;;;;;;;12.38;6.05;;;;;;;21.97;62.58;94805.84;4953323;28;20240;-75
2022/07/22 01:19:12;;;;;;;14.00;6.40;;;;;;;21.91;63.02;94803.53;4953250;28;20648;-76
2022/07/22 01:21:40;;;;;;;15.15;6.05;;;;;;;21.90;63.10;94804.63;4954609;28;20230;-75
2022/07/22 01:24:07;;;;;;;12.55;6.53;;;;;;;21.91;62.84;94803.53;4955132;28;20226;-76
2022/07/22 01:26:34;;;;;;;11.85;6.78;;;;;;;21.88;62.95;94796.97;4956564;28;20214;-75
2022/07/22 01:29:01;;;;;;;15.57;6.85;;;;;;;21.90;62.83;94807.28;4953522;28;20212;-76
2022/07/22 01:31:29;;;;;;;11.70;5.88;;;;;;;21.87;63.18;94802.50;4954588;28;20212;-78
2022/07/22 01:33:56;;;;;;;13.70;6.30;;;;;;;21.88;62.72;94794.31;4954535;28;20212;-77
2022/07/22 01:36:23;;;;;;;13.43;6.45;;;;;;;21.87;62.73;94800.69;4952701;28;20213;-77
2022/07/22 01:38:51;;;;;;;12.93;6.10;;;;;;;21.78;62.79;94804.22;4956359;28;20217;-78
2022/07/22 01:41:18;;;;;;;13.10;6.47;;;;;;;21.77;62.54;94798.13;4951153;28;20209;-78
2022/07/22 01:43:45;;;;;;;9.52;6.10;;;;;;;21.70;63.22;94802.22;4954933;28;20225;-78
2022/07/22 01:46:12;;;;;;;10.93;6.53;;;;;;;21.67;63.29;94802.78;4956187;28;20346;-78
2022/07/22 01:48:39;;;;;;;10.57;6.25;;;;;;;21.61;63.66;94798.59;4956496;28;20206;-77
2022/07/22 01:51:06;;;;;;;11.32;6.80;;;;;;;21.60;64.10;94805.75;4953302;28;20217;-77
2022/07/22 01:53:33;;;;;;;20.27;6.90;;;;;;;21.56;63.78;94799.44;4954035;28;20734;-77
2022/07/22 01:56:01;;;;;;;16.20;6.60;;;;;;;21.53;64.03;94805.28;4954219;28;20216;-78
2022/07/22 01:58:28;;;;;;;13.50;6.43;;;;;;;21.52;63.87;94805.59;4952778;28;20206;-77
2022/07/22 02:00:55;;;;;;;12.73;6.70;;;;;;;21.50;63.53;94800.56;4952573;28;20202;-76
2022/07/22 02:03:22;;;;;;;12.93;6.80;;;;;;;21.47;63.71;94809.09;4952905;28;20747;-76
2022/07/22 02:05:49;;;;;;;14.95;6.72;;;;;;;21.47;64.46;94804.56;4955684;28;20209;-76
2022/07/22 02:08:15;;;;;;;11.68;6.93;;;;;;;21.44;64.55;94813.06;4955162;28;20672;-76
2022/07/22 02:10:42;;;;;;;11.32;6.32;;;;;;;21.38;64.99;94819.50;4958947;28;20205;-76
2022/07/22 02:13:10;;;;;;;15.68;6.90;;;;;;;21.34;65.23;94818.47;4953317;28;20217;-76
2022/07/22 02:15:38;;;;;;;12.52;6.85;;;;;;;21.36;65.94;94826.91;4952892;28;20248;-76
2022/07/22 02:18:11;;;;;;;15.85;7.13;;;;;;;21.34;65.88;94823.75;4953995;28;20608;-77
2022/07/22 02:20:38;;;;;;;15.40;7.30;;;;;;;21.38;65.56;94824.78;4952091;28;20220;-77
2022/07/22 02:23:05;;;;;;;16.58;7.15;;;;;;;21.37;65.23;94827.69;4953496;28;20341;-77
2022/07/22 02:25:32;;;;;;;18.40;6.95;;;;;;;21.33;65.16;94831.97;4953365;28;20213;-78
2022/07/22 02:27:59;;;;;;;10.15;6.47;;;;;;;21.33;65.34;94829.31;4954160;28;20231;-76
2022/07/22 02:30:27;;;;;;;12.27;6.53;;;;;;;21.30;65.16;94817.44;4957233;28;20209;-75
2022/07/22 02:32:54;;;;;;;11.88;6.50;;;;;;;21.31;65.19;94826.16;4953145;28;20652;-75
2022/07/22 02:35:21;;;;;;;12.63;6.60;;;;;;;21.30;65.35;94825.38;4956993;28;20688;-76
2022/07/22 02:37:48;;;;;;;13.38;6.40;;;;;;;21.32;65.10;94819.81;4953697;28;20201;-77
2022/07/22 02:40:14;;;;;;;13.60;7.05;;;;;;;21.27;65.40;94817.25;4955383;28;20213;-77
2022/07/22 02:42:41;;;;;;;12.23;7.30;;;;;;;21.19;65.72;94821.25;4959062;28;20208;-77
2022/07/22 02:45:09;;;;;;;11.93;7.05;;;;;;;21.10;66.84;94814.22;4955861;28;21467;-76
2022/07/22 02:47:46;;;;;;;12.57;6.32;;;;;;;21.01;67.88;94826.44;4956646;28;20329;-77
2022/07/22 02:50:13;;;;;;;13.90;6.50;;;;;;;20.95;68.10;94826.47;4954954;28;20216;-76
2022/07/22 02:52:39;;;;;;;11.15;6.88;;;;;;;20.87;68.14;94821.00;4955743;28;20563;-76
2022/07/22 02:55:07;;;;;;;15.07;6.82;;;;;;;20.76;68.68;94822.16;4952704;28;20205;-76
2022/07/22 02:57:34;;;;;;;17.17;7.25;;;;;;;20.70;68.88;94828.53;4956255;28;20217;-76
2022/07/22 03:00:01;;;;;;;13.10;7.65;;;;;;;20.49;68.93;94816.56;4953626;28;20205;-76
2022/07/22 03:02:28;;;;;;;18.70;7.20;;;;;;;20.45;69.60;94813.69;4954899;28;20219;-76
2022/07/22 03:04:56;;;;;;;10.85;7.28;;;;;;;20.36;70.08;94820.59;4956268;28;20607;-76
2022/07/22 03:07:23;;;;;;;10.48;7.35;;;;;;;20.39;70.44;94825.34;4950349;28;20202;-76
2022/07/22 03:09:50;;;;;;;17.92;7.45;;;;;;;20.41;70.92;94815.28;4953075;28;20213;-77
2022/07/22 03:12:17;;;;;;;13.35;6.90;;;;;;;20.47;71.17;94818.69;4954112;28;20877;-76
2022/07/22 03:14:44;;;;;;;15.38;7.22;;;;;;;20.39;71.71;94814.78;4956283;28;20204;-77
2022/07/22 03:17:11;;;;;;;15.35;6.95;;;;;;;20.47;71.28;94824.75;4957364;28;20264;-76
2022/07/22 03:19:37;;;;;;;14.93;7.72;;;;;;;20.54;71.39;94829.72;4953439;28;20201;-76
2022/07/22 03:22:06;;;;;;;17.55;8.50;;;;;;;20.54;71.63;94819.97;4955885;28;20218;-76
2022/07/22 03:24:32;;;;;;;18.85;8.40;;;;;;;20.59;71.52;94821.75;4956775;28;20258;-77
2022/07/22 03:26:59;;;;;;;15.63;7.97;;;;;;;20.57;71.73;94818.63;4957248;28;20678;-77
2022/07/22 03:29:26;;;;;;;21.10;8.52;;;;;;;20.59;71.41;94827.03;4958557;28;20211;-76
2022/07/22 03:31:53;;;;;;;14.75;8.00;;;;;;;20.47;71.80;94826.59;4955277;28;20582;-77
2022/07/22 03:34:20;;;;;;;15.68;7.43;;;;;;;20.43;71.87;94826.38;4959592;28;20201;-76
2022/07/22 03:36:46;;;;;;;11.45;7.35;;;;;;;20.43;71.97;94828.22;4956676;28;20209;-77
2022/07/22 03:39:15;;;;;;;14.43;7.53;;;;;;;20.38;71.95;94826.41;4954687;28;20209;-77
2022/07/22 03:41:41;;;;;;;17.08;7.88;;;;;;;20.31;72.18;94826.72;4954878;28;20213;-77
2022/07/22 03:44:08;;;;;;;14.55;7.70;;;;;;;20.31;72.09;94832.00;4955189;28;20244;-77
2022/07/22 03:46:35;;;;;;;16.90;7.78;;;;;;;20.28;72.07;94831.75;4955571;28;20692;-77
2022/07/22 03:49:02;;;;;;;12.70;7.75;;;;;;;20.29;72.01;94839.38;4958838;28;20212;-76
2022/07/22 03:51:29;;;;;;;15.10;7.75;;;;;;;20.29;71.28;94843.88;4959399;28;20205;-76
2022/07/22 03:53:55;;;;;;;20.60;7.65;;;;;;;20.26;71.16;94837.28;4955411;28;20211;-76
2022/07/22 03:56:24;;;;;;;14.40;7.45;;;;;;;20.25;71.14;94843.66;4960058;28;20223;-76
2022/07/22 03:58:50;;;;;;;11.23;7.28;;;;;;;20.20;71.02;94842.88;4956827;28;20212;-77
2022/07/22 04:01:17;;;;;;;15.90;7.47;;;;;;;20.21;71.09;94850.50;4958480;28;20216;-77
2022/07/22 04:03:44;;;;;;;14.20;8.38;;;;;;;20.15;71.41;94843.66;4955685;28;20624;-78
2022/07/22 04:06:11;;;;;;;11.32;7.50;;;;;;;20.17;71.52;94854.72;4956831;28;20205;-77
2022/07/22 04:08:37;;;;;;;15.07;7.80;;;;;;;20.23;70.97;94853.66;4954005;28;20220;-77
2022/07/22 04:11:04;;;;;;;17.08;7.97;;;;;;;20.21;71.46;94852.34;4953740;28;20221;-77
2022/07/22 04:13:33;;;;;;;14.05;8.00;;;;;;;20.22;71.50;94856.56;4957532;28;20217;-77
2022/07/22 04:16:00;;;;;;;13.18;7.78;;;;;;;20.22;71.35;94860.00;4910957;28;1223803;-77
2022/07/22 04:18:26;;;;;;;19.02;8.38;;;;;;;20.27;71.39;94851.28;4956758;28;20212;-77
2022/07/22 04:20:53;;;;;;;16.23;7.90;;;;;;;20.29;71.57;94860.50;4956556;28;20240;-77
2022/07/22 04:23:20;;;;;;;18.52;8.38;;;;;;;20.34;71.35;94851.78;4957377;28;20212;-77
2022/07/22 04:25:47;;;;;;;17.38;8.30;;;;;;;20.36;71.26;94852.28;4955099;28;20229;-76
2022/07/22 04:28:14;;;;;;;14.75;8.10;;;;;;;20.39;71.23;94851.75;4956701;28;20209;-77
2022/07/22 04:30:42;;;;;;;22.60;8.50;;;;;;;20.46;71.47;94862.00;4956955;28;20681;-77
2022/07/22 04:33:09;;;;;;;16.67;8.73;;;;;;;20.44;71.45;94867.56;4956732;28;20209;-77
2022/07/22 04:35:36;;;;;;;15.43;8.38;;;;;;;20.50;71.48;94866.47;4957990;28;20205;-77
2022/07/22 04:38:03;;;;;;;21.55;8.55;;;;;;;20.57;71.28;94868.81;4954548;28;20213;-77
2022/07/22 04:40:30;;;;;;;20.33;8.35;;;;;;;20.59;70.32;94870.09;4955468;28;20596;-77
2022/07/22 04:42:56;;;;;;;15.27;8.32;;;;;;;20.64;70.39;94870.06;4954908;28;20206;-77
2022/07/22 04:45:23;;;;;;;12.45;8.07;;;;;;;20.71;69.68;94875.84;4956151;28;20229;-77
2022/07/22 04:47:51;;;;;;;14.02;8.18;;;;;;;20.68;70.20;94871.09;4956272;28;20269;-77
2022/07/22 04:50:19;;;;;;;21.20;8.55;;;;;;;20.73;69.67;94880.81;4952802;28;20205;-77
2022/07/22 04:52:45;;;;;;;14.82;7.93;;;;;;;20.81;68.07;94881.03;4958406;28;20216;-77
2022/07/22 04:55:12;;;;;;;17.08;8.48;;;;;;;20.89;67.56;94884.97;4954501;28;20649;-78
2022/07/22 04:57:39;;;;;;;18.63;8.48;;;;;;;20.90;66.08;94879.38;4954083;28;20568;-78
2022/07/22 05:00:08;;;;;;;16.00;8.95;;;;;;;20.94;65.50;94880.41;4955013;28;20216;-75
2022/07/22 05:02:34;;;;;;;14.18;9.05;;;;;;;20.88;66.54;94884.16;4958373;28;20214;-72
2022/07/22 05:05:02;;;;;;;19.63;9.23;;;;;;;20.94;66.60;94890.19;4952711;28;20229;-73
2022/07/22 05:07:29;;;;;;;18.15;8.75;;;;;;;20.94;66.03;94887.56;4955565;28;20568;-73
2022/07/22 05:09:56;;;;;;;19.52;8.85;;;;;;;20.91;66.48;94880.19;4952384;28;20208;-74
2022/07/22 05:12:23;;;;;;;18.42;7.93;;;;;;;20.97;66.12;94892.28;4953921;28;20209;-74
2022/07/22 05:14:50;;;;;;;15.73;8.85;;;;;;;21.02;66.22;94886.94;4952740;28;20209;-75
2022/07/22 05:17:16;;;;;;;15.65;8.25;;;;;;;21.12;65.29;94884.25;4954593;28;20703;-73
2022/07/22 05:19:43;;;;;;;15.30;7.90;;;;;;;21.20;65.08;94888.16;4944705;28;20201;-72
2022/07/22 05:22:12;;;;;;;18.45;8.20;;;;;;;21.29;64.78;94887.28;4946347;28;20216;-72
2022/07/22 05:24:38;;;;;;;17.13;8.68;;;;;;;21.36;65.04;94892.22;4945447;28;20233;-72
2022/07/22 05:27:05;;;;;;;17.08;9.15;;;;;;;21.42;65.47;94901.69;4946244;28;20225;-72
2022/07/22 05:29:32;;;;;;;13.57;7.88;;;;;;;21.41;64.73;94898.25;4949549;28;20547;-72
2022/07/22 05:31:59;;;;;;;17.08;7.93;;;;;;;21.46;64.70;94900.88;4952142;28;20204;-73
2022/07/22 05:34:26;;;;;;;11.73;7.65;;;;;;;21.48;64.26;94895.28;4952144;28;20679;-73
2022/07/22 05:36:53;;;;;;;15.18;8.13;;;;;;;21.55;63.67;94897.63;4944991;28;20700;-73
2022/07/22 05:39:21;;;;;;;15.85;7.45;;;;;;;21.57;64.00;94903.41;4950771;28;20201;-73
2022/07/22 05:41:47;;;;;;;14.73;8.25;;;;;;;21.59;63.88;94896.75;4951342;28;20210;-84
2022/07/22 05:44:14;;;;;;;16.98;8.38;;;;;;;21.68;63.75;94894.28;4950689;28;20209;-74
2022/07/22 05:46:41;;;;;;;17.38;8.20;;;;;;;21.64;64.25;94899.38;4947644;28;20209;-74
2022/07/22 05:49:08;;;;;;;18.80;7.85;;;;;;;21.64;64.42;94893.28;4951290;28;20731;-80
2022/07/22 05:51:35;;;;;;;13.23;7.88;;;;;;;21.70;64.43;94903.53;4956871;28;20271;-79
2022/07/22 05:54:03;;;;;;;13.13;7.57;;;;;;;21.69;64.39;94899.31;4954270;28;20958;-74
2022/07/22 05:56:32;;;;;;;14.45;7.65;;;;;;;21.74;63.93;94895.81;4951964;28;20209;-75
2022/07/22 05:59:05;;;;;;;15.90;7.70;;;;;;;21.85;63.46;94891.97;4951356;28;20229;-73
2022/07/22 06:01:32;;;;;;;17.15;8.13;;;;;;;21.90;63.53;94889.31;4950978;28;20668;-74
2022/07/22 06:03:59;;;;;;;12.75;7.88;;;;;;;21.94;63.83;94888.47;4949360;28;20209;-75
2022/07/22 06:06:26;;;;;;;21.10;7.72;;;;;;;22.01;64.29;94898.72;4949091;28;20232;-75
2022/07/22 06:08:53;;;;;;;17.05;8.20;;;;;;;22.12;64.33;94883.50;4947626;28;20209;-73
2022/07/22 06:11:20;;;;;;;14.25;7.35;;;;;;;22.19;64.26;94890.03;4951798;28;20760;-73
2022/07/22 06:13:48;;;;;;;14.30;7.93;;;;;;;22.32;63.98;94883.22;4947303;28;20233;-73
2022/07/22 06:16:14;;;;;;;13.93;8.15;;;;;;;22.37;63.73;94891.09;4950340;28;20252;-74
2022/07/22 06:18:41;;;;;;;17.23;7.78;;;;;;;22.46;63.41;94889.41;4953080;28;20208;-74
2022/07/22 06:21:09;;;;;;;15.25;7.55;;;;;;;22.54;63.38;94888.75;4946253;28;20216;-74
2022/07/22 06:23:36;;;;;;;17.75;7.30;;;;;;;22.63;63.17;94888.91;4948579;28;20295;-74
2022/07/22 06:26:03;;;;;;;12.90;7.63;;;;;;;22.73;62.45;94900.19;4951442;28;20883;-74
2022/07/22 06:28:30;;;;;;;14.48;7.60;;;;;;;23.02;61.98;94894.69;4954697;28;20227;-74
2022/07/22 06:30:58;;;;;;;12.30;7.40;;;;;;;23.38;59.85;94895.72;4948051;28;20715;-74
2022/07/22 06:33:25;;;;;;;16.63;7.70;;;;;;;23.64;59.29;94894.19;4951445;28;20209;-74
2022/07/22 06:35:52;;;;;;;18.00;7.85;;;;;;;23.82;58.17;94889.09;4952132;28;20205;-74
2022/07/22 06:38:19;;;;;;;17.10;8.30;;;;;;;23.99;57.15;94892.72;4949671;28;20208;-74
2022/07/22 06:40:46;;;;;;;11.70;7.63;;;;;;;24.04;57.98;94891.84;4950773;28;20228;-74
2022/07/22 06:43:13;;;;;;;15.38;7.55;;;;;;;23.99;57.94;94884.75;4952730;28;20210;-74
2022/07/22 06:45:40;;;;;;;19.48;7.90;;;;;;;24.04;57.56;94897.16;4948676;28;20786;-74
2022/07/22 06:48:08;;;;;;;16.58;8.05;;;;;;;23.97;56.84;94894.91;4951647;28;20216;-74
2022/07/22 06:50:35;;;;;;;16.88;7.53;;;;;;;23.97;57.08;94894.91;4946383;28;20217;-74
2022/07/22 06:53:02;;;;;;;22.73;8.00;;;;;;;23.98;56.90;94895.69;4949275;28;20209;-74
2022/07/22 06:55:29;;;;;;;15.55;7.30;;;;;;;23.96;56.28;94892.53;4949230;28;20257;-72
2022/07/22 06:57:56;;;;;;;15.15;7.57;;;;;;;24.03;56.39;94884.97;4949750;28;20209;-75
2022/07/22 07:00:23;;;;;;;19.45;7.93;;;;;;;24.07;56.14;94892.03;4948937;28;20605;-73
2022/07/22 07:02:49;;;;;;;22.80;7.03;;;;;;;24.28;53.86;94892.44;4948459;28;20217;-73
2022/07/22 07:05:18;;;;;;;16.27;8.02;;;;;;;24.41;53.83;94893.50;4950508;28;20251;-73
2022/07/22 07:07:45;;;;;;;16.38;6.88;;;;;;;24.52;53.07;94893.00;4947042;28;20216;-75
2022/07/22 07:10:12;;;;;;;14.57;6.93;;;;;;;24.56;52.26;94899.28;4938744;28;20231;-73
2022/07/22 07:12:40;;;;;;;12.45;6.88;;;;;;;24.68;52.50;94901.41;4946017;28;20555;-74
2022/07/22 07:15:08;;;;;;;16.13;7.03;;;;;;;24.75;52.96;94899.91;4949566;28;20668;-75
2022/07/22 07:17:35;;;;;;;14.60;7.20;;;;;;;24.92;52.04;94901.16;4947571;28;20705;-72
2022/07/22 07:20:02;;;;;;;11.07;7.35;;;;;;;25.09;51.17;94901.28;4949356;28;20660;-73
2022/07/22 07:22:30;;;;;;;13.02;6.07;;;;;;;25.39;51.95;94893.38;4948359;28;20244;-76
2022/07/22 07:24:57;;;;;;;13.98;6.70;;;;;;;25.69;50.78;94907.00;4949392;28;20720;-76
2022/07/22 07:27:24;;;;;;;20.92;10.82;;;;;;;25.92;50.00;94905.84;4946807;28;20228;-76
2022/07/22 07:29:50;;;;;;;14.25;6.25;;;;;;;26.00;50.78;94897.13;4945959;28;20220;-77
2022/07/22 07:32:17;;;;;;;10.05;6.43;;;;;;;26.10;50.09;94904.81;4943965;28;20865;-76
2022/07/22 07:34:44;;;;;;;11.90;5.20;;;;;;;26.18;50.60;94904.09;4928598;28;20217;-77
2022/07/22 07:37:11;;;;;;;9.57;5.57;;;;;;;26.22;49.96;94898.94;4935541;28;20206;-77
2022/07/22 07:39:40;;;;;;;13.48;5.38;;;;;;;26.32;48.83;94899.41;4935527;28;20217;-77
2022/07/22 07:42:07;;;;;;;12.40;6.95;;;;;;;26.42;48.44;94901.81;4941687;28;20202;-76
2022/07/22 07:44:33;;;;;;;10.82;6.45;;;;;;;26.54;48.57;94895.88;4933821;28;20213;-77
2022/07/22 07:47:00;;;;;;;11.50;5.82;;;;;;;26.57;46.85;94903.25;4955868;28;20225;-76
2022/07/22 07:49:27;;;;;;;9.48;5.30;;;;;;;26.41;48.98;94894.88;4947455;28;20205;-75
2022/07/22 07:51:54;;;;;;;12.57;5.65;;;;;;;26.58;47.39;94901.38;4950127;28;20209;-77
2022/07/22 07:54:21;;;;;;;10.45;5.85;;;;;;;26.67;46.53;94904.81;4949838;28;20221;-76
2022/07/22 07:56:49;;;;;;;11.73;5.13;;;;;;;26.75;46.58;94904.84;4953337;28;20221;-77
2022/07/22 07:59:16;;;;;;;10.93;4.93;;;;;;;26.84;46.20;94899.53;4941230;28;20198;-76
2022/07/22 08:01:44;;;;;;;8.45;4.95;;;;;;;26.89;45.58;94902.03;4952815;28;20241;-78
2022/07/22 08:04:10;;;;;;;8.63;5.50;;;;;;;27.02;44.69;94901.06;4950849;28;20213;-73
2022/07/22 08:06:38;;;;;;;8.90;5.00;;;;;;;27.05;45.18;94903.91;4952309;28;20233;-73
2022/07/22 08:09:05;;;;;;;13.20;5.45;;;;;;;27.11;44.36;94909.09;4952062;28;20408;-73
2022/07/22 08:11:32;;;;;;;12.80;4.93;;;;;;;27.24;43.57;94911.59;4936801;28;20204;-74
2022/07/22 08:14:00;;;;;;;9.10;5.30;;;;;;;27.28;40.60;94909.84;4950741;28;20247;-74
2022/07/22 08:16:27;;;;;;;8.68;4.80;;;;;;;27.35;41.39;94907.50;4950165;28;20241;-74
2022/07/22 08:18:54;;;;;;;9.75;5.07;;;;;;;27.48;43.69;94905.75;4952796;28;20200;-75
2022/07/22 08:21:21;;;;;;;10.07;5.72;;;;;;;27.55;42.92;94911.41;4960773;28;20227;-75
2022/07/22 08:23:48;;;;;;;10.20;4.70;;;;;;;27.58;42.58;94914.22;4954779;28;20233;-74
2022/07/22 08:26:15;;;;;;;10.02;4.88;;;;;;;27.57;43.63;94914.53;4952290;28;20224;-75
2022/07/22 08:28:42;;;;;;;9.57;5.38;;;;;;;27.66;41.61;94896.59;4955180;28;20280;-74
2022/07/22 08:31:10;;;;;;;8.55;4.93;;;;;;;27.73;41.25;94906.81;4950306;28;20225;-73
2022/07/22 08:33:37;;;;;;;10.52;5.32;;;;;;;27.71;44.38;94911.66;4934455;28;20713;-74
2022/07/22 08:36:05;;;;;;;7.63;5.13;;;;;;;27.81;41.31;94909.44;4954393;28;20770;-74
2022/07/22 08:38:32;;;;;;;7.80;4.60;;;;;;;27.93;41.65;94903.44;4955190;28;20212;-74
2022/07/22 08:40:59;;;;;;;6.80;5.18;;;;;;;28.09;41.26;94910.63;4955766;28;20201;-74
2022/07/22 08:43:26;;;;;;;8.60;5.00;;;;;;;28.09;41.15;94907.16;4956802;28;20295;-74
2022/07/22 08:45:54;;;;;;;12.13;5.10;;;;;;;28.20;42.18;94902.25;4952788;28;20600;-74
2022/07/22 08:48:22;;;;;;;13.23;5.32;;;;;;;28.19;41.18;94908.69;4954799;28;20272;-74
2022/07/22 08:50:49;;;;;;;8.85;5.07;;;;;;;28.22;41.81;94908.06;4953363;28;20347;-74
2022/07/22 08:53:16;;;;;;;7.68;5.25;;;;;;;28.34;40.28;94908.91;4957731;28;20821;-74
2022/07/22 08:55:44;;;;;;;10.05;5.28;;;;;;;28.46;39.80;94913.56;4953830;28;20205;-74
2022/07/22 08:58:11;;;;;;;14.52;5.50;;;;;;;28.55;39.77;94911.63;4952464;28;20265;-75
2022/07/22 09:00:38;;;;;;;10.48;4.78;;;;;;;28.64;39.04;94915.06;4955421;28;20268;-75
2022/07/22 09:03:18;;;;;;;10.65;5.13;;;;;;;28.76;39.87;94915.13;4955459;28;20226;-74
2022/07/22 09:05:47;;;;;;;10.15;5.25;;;;;;;28.80;39.57;94921.41;4957750;28;20316;-74
2022/07/22 09:08:13;;;;;;;11.02;5.50;;;;;;;28.94;38.56;94927.28;4954237;28;20214;-75
2022/07/22 09:10:40;;;;;;;8.73;4.70;;;;;;;29.01;37.66;94916.81;4953722;28;20241;-75
2022/07/22 09:13:10;;;;;;;10.65;5.25;;;;;;;29.22;37.77;94931.03;4952149;28;20223;-75
2022/07/22 09:15:39;;;;;;;8.30;5.10;;;;;;;29.32;37.52;94918.34;4953052;28;20245;-74
2022/07/22 09:18:06;;;;;;;7.82;4.78;;;;;;;29.49;37.30;94923.53;4956390;28;20212;-75
2022/07/22 09:20:34;;;;;;;10.60;5.38;;;;;;;29.64;36.86;94930.97;4955763;28;20619;-74
2022/07/22 09:23:03;;;;;;;9.50;5.05;;;;;;;29.74;36.80;94930.50;4953593;28;20564;-74
2022/07/22 09:25:33;;;;;;;12.38;5.03;;;;;;;29.77;36.51;94921.81;4955868;28;20216;-73
2022/07/22 09:28:12;;;;;;;10.23;4.35;;;;;;;29.93;35.20;94930.03;4955355;28;20212;-74
2022/07/22 09:30:41;;;;;;;7.07;4.60;;;;;;;29.85;35.29;94915.59;4954965;28;20193;-75
2022/07/22 09:33:09;;;;;;;11.18;4.90;;;;;;;30.10;36.03;94913.75;4954362;28;20217;-74
2022/07/22 09:35:36;;;;;;;8.43;4.85;;;;;;;30.46;35.68;94915.66;4955381;28;20273;-74
2022/07/22 09:38:07;;;;;;;7.95;4.75;;;;;;;30.73;35.17;94917.66;4953862;28;20220;-74
2022/07/22 09:40:35;;;;;;;7.97;4.95;;;;;;;30.83;34.64;94917.94;4956664;28;20627;-74
2022/07/22 09:43:05;;;;;;;12.43;4.97;;;;;;;31.05;34.01;94916.69;4954165;28;20208;-74
2022/07/22 09:45:34;;;;;;;7.40;4.68;;;;;;;31.18;33.88;94920.13;4955124;28;20208;-74
2022/07/22 09:48:02;;;;;;;9.25;5.03;;;;;;;31.36;34.11;94921.41;4953938;28;20574;-74
2022/07/22 09:50:31;;;;;;;12.35;4.95;;;;;;;31.51;33.55;94918.00;4956481;28;20212;-74
2022/07/22 09:53:00;;;;;;;13.45;4.95;;;;;;;31.74;33.36;94910.94;4954594;28;20212;-73
2022/07/22 09:55:30;;;;;;;8.02;4.63;;;;;;;31.70;32.60;94910.03;4954492;28;20212;-74
2022/07/22 09:57:58;;;;;;;7.30;4.90;;;;;;;31.77;32.29;94901.38;4954163;28;20296;-74
2022/07/22 10:00:27;;;;;;;7.20;4.90;;;;;;;31.71;31.87;94908.94;4952279;28;20201;-74
2022/07/22 10:02:56;;;;;;;20.20;5.20;;;;;;;31.53;32.79;94901.50;4952023;28;20213;-74
2022/07/22 10:05:25;;;;;;;8.25;4.90;;;;;;;31.46;32.87;94900.16;4953588;28;20229;-73
2022/07/22 10:07:53;;;;;;;6.85;4.90;;;;;;;31.53;32.91;94901.50;4953727;28;20204;-74
2022/07/22 10:10:22;;;;;;;8.88;5.03;;;;;;;31.59;32.96;94902.81;4952315;28;20212;-74
2022/07/22 10:12:52;;;;;;;6.55;4.90;;;;;;;31.81;32.40;94900.34;4952571;28;20207;-74
2022/07/22 10:15:20;;;;;;;10.38;4.80;;;;;;;31.84;33.06;94898.84;4952583;28;20293;-74
2022/07/22 10:17:49;;;;;;;10.15;4.78;;;;;;;32.02;33.01;94886.66;4952880;28;20712;-74
2022/07/22 10:20:19;;;;;;;8.18;5.10;;;;;;;32.29;32.02;94893.06;4953656;28;20284;-74
2022/07/22 10:22:54;;;;;;;6.63;4.47;;;;;;;31.81;31.34;94891.47;4954835;28;20253;-74
2022/07/22 10:25:32;;;;;;;5.38;4.75;;;;;;;31.35;31.90;94891.03;4953910;28;20276;-74
2022/07/22 10:28:03;;;;;;;5.53;4.10;;;;;;;31.10;32.26;94889.59;4952501;28;20198;-74
2022/07/22 10:30:33;;;;;;;10.88;4.22;;;;;;;31.24;33.06;94884.59;4954463;28;20605;-73
2022/07/22 10:33:09;;;;;;;8.80;4.68;;;;;;;31.27;32.84;94883.13;4954712;28;20211;-74
2022/07/22 10:35:37;;;;;;;6.85;4.53;;;;;;;31.81;31.90;94889.56;4956341;28;20216;-74
2022/07/22 10:38:07;;;;;;;11.73;5.60;;;;;;;32.16;31.50;94887.00;4953116;28;20217;-74
2022/07/22 10:40:49;;;;;;;7.38;4.70;;;;;;;32.34;30.97;94896.28;4954019;28;20213;-75
2022/07/22 10:43:19;;;;;;;7.30;4.88;;;;;;;32.56;30.89;94886.78;4953611;28;20205;-75
2022/07/22 10:45:48;;;;;;;14.02;4.70;;;;;;;32.94;30.42;94880.69;4952216;28;20208;-76
2022/07/22 10:48:20;;;;;;;8.70;4.82;;;;;;;33.00;30.17;94888.13;4951791;28;20600;-75
2022/07/22 10:50:55;;;;;;;8.15;4.57;;;;;;;33.12;29.82;94889.94;4955479;28;20222;-75
2022/07/22 10:53:24;;;;;;;20.10;4.60;;;;;;;33.24;30.43;94879.00;4953959;28;20219;-75
2022/07/22 10:56:03;;;;;;;7.38;4.38;;;;;;;33.42;29.91;94885.50;4950774;28;20208;-75
2022/07/22 10:58:46;;;;;;;9.10;4.45;;;;;;;33.54;29.77;94890.75;4953553;28;20288;-76
2022/07/22 11:01:15;;;;;;;6.38;4.05;;;;;;;33.62;29.52;94886.31;4952846;28;20447;-74
2022/07/22 11:03:44;;;;;;;10.73;4.80;;;;;;;33.59;29.65;94890.47;4960787;28;20202;-74
2022/07/22 11:06:22;;;;;;;8.77;4.90;;;;;;;33.88;29.65;94874.81;4954737;28;20606;-74
2022/07/22 11:08:52;;;;;;;9.18;4.85;;;;;;;33.90;28.60;94884.09;4950998;28;20205;-74
2022/07/22 11:11:19;;;;;;;8.00;4.97;;;;;;;33.99;28.84;94889.25;4952440;28;20292;-74
2022/07/22 11:13:47;;;;;;;7.18;4.72;;;;;;;34.05;29.19;94879.72;4952922;28;20206;-73
2022/07/22 11:16:16;;;;;;;6.65;4.60;;;;;;;34.06;29.01;94883.94;4953209;28;20240;-74
2022/07/22 11:18:54;;;;;;;9.35;4.90;;;;;;;34.29;29.63;94883.97;4951255;28;20636;-74
2022/07/22 11:21:22;;;;;;;6.82;4.18;;;;;;;34.42;28.40;94879.91;4953150;28;20592;-74
2022/07/22 11:23:51;;;;;;;11.27;4.88;;;;;;;34.87;27.78;94879.00;4952299;28;20214;-81
2022/07/22 11:26:20;;;;;;;7.05;4.18;;;;;;;34.32;28.18;94884.00;4950880;28;20229;-73
2022/07/22 11:28:48;;;;;;;7.38;4.63;;;;;;;33.49;28.47;94882.16;4953987;28;20304;-73